Time;durP1;ratioP1;P1;durP2;ratioP2;P2;SDS_P1;SDS_P2;PMS_P1;PMS_P2;Temp;Humidity;BMP_temperature;BMP_pressure;BME280_temperature;BME280_humidity;BME280_pressure;Samples;Min_cycle;Max_cycle;Signal;HPM_P1;HPM_P2
2023/10/31 00:00:38;;;;;;;3.90;0.85;;;10.00;99.90;;;;;;5008821;28;20042;-68
2023/10/31 00:03:03;;;;;;;4.93;1.15;;;10.00;99.90;;;;;;5014502;28;20025;-68
2023/10/31 00:05:29;;;;;;;9.20;1.60;;;10.00;99.90;;;;;;5014288;28;20043;-69
2023/10/31 00:07:54;;;;;;;5.38;1.20;;;9.90;99.90;;;;;;5014069;28;20396;-67
2023/10/31 00:10:20;;;;;;;7.30;1.60;;;9.90;99.90;;;;;;5020791;28;20082;-68
2023/10/31 00:12:46;;;;;;;4.93;1.52;;;9.80;99.90;;;;;;5013019;28;20495;-68
2023/10/31 00:15:11;;;;;;;6.30;1.73;;;9.80;99.90;;;;;;5015398;28;20029;-68
2023/10/31 00:17:37;;;;;;;5.38;1.10;;;9.70;99.90;;;;;;5018804;28;20125;-68
2023/10/31 00:20:03;;;;;;;5.32;0.98;;;9.70;99.90;;;;;;5012072;28;20058;-68
2023/10/31 00:22:28;;;;;;;7.43;1.60;;;9.60;99.90;;;;;;5012039;28;20029;-69
2023/10/31 00:24:54;;;;;;;5.07;2.15;;;9.60;99.90;;;;;;5022463;28;20013;-68
2023/10/31 00:27:19;;;;;;;4.72;2.10;;;9.60;99.90;;;;;;5012490;28;20036;-68
2023/10/31 00:29:45;;;;;;;9.52;2.60;;;9.60;99.90;;;;;;5015464;28;20083;-68
2023/10/31 00:32:10;;;;;;;8.07;2.80;;;9.50;99.90;;;;;;5013118;28;20034;-68
2023/10/31 00:34:36;;;;;;;8.32;3.17;;;9.60;99.90;;;;;;5015030;28;20033;-68
2023/10/31 00:37:01;;;;;;;9.68;3.40;;;9.50;99.90;;;;;;5022938;28;20025;-68
2023/10/31 00:39:27;;;;;;;11.95;3.92;;;9.60;99.90;;;;;;5013434;28;20482;-68
2023/10/31 00:41:52;;;;;;;13.82;5.35;;;9.60;99.90;;;;;;5011494;28;20037;-68
2023/10/31 00:44:19;;;;;;;11.23;6.25;;;9.70;99.90;;;;;;5022045;28;20478;-68
2023/10/31 00:46:44;;;;;;;13.65;7.28;;;9.70;99.90;;;;;;5016109;28;20490;-68
2023/10/31 00:49:10;;;;;;;12.80;6.70;;;9.70;99.90;;;;;;5012390;28;20025;-68
2023/10/31 00:51:35;;;;;;;11.95;6.30;;;9.80;99.90;;;;;;5014954;28;20042;-68
2023/10/31 00:54:01;;;;;;;16.77;7.10;;;9.80;99.90;;;;;;5015408;28;20025;-68
2023/10/31 00:56:26;;;;;;;10.68;5.60;;;9.80;99.90;;;;;;5002780;28;20058;-68
2023/10/31 00:58:52;;;;;;;11.38;5.70;;;9.80;99.90;;;;;;5016971;28;20043;-68
2023/10/31 01:01:17;;;;;;;15.30;6.05;;;9.90;99.90;;;;;;5012871;28;20048;-68
2023/10/31 01:03:43;;;;;;;17.15;6.68;;;9.90;99.90;;;;;;5010255;28;20034;-68
2023/10/31 01:06:09;;;;;;;16.13;9.45;;;9.90;99.90;;;;;;5021247;28;20056;-68
2023/10/31 01:08:34;;;;;;;20.10;12.27;;;9.90;99.90;;;;;;5015644;28;23702;-68
2023/10/31 01:11:00;;;;;;;23.92;13.18;;;9.90;99.90;;;;;;5017269;28;20087;-68
2023/10/31 01:13:25;;;;;;;27.63;18.25;;;9.90;99.90;;;;;;5018313;28;20392;-68
2023/10/31 01:15:51;;;;;;;21.30;15.48;;;10.00;99.90;;;;;;5011087;28;20026;-68
2023/10/31 01:18:17;;;;;;;26.08;17.50;;;9.90;99.90;;;;;;5014715;28;20030;-68
2023/10/31 01:20:42;;;;;;;20.90;14.93;;;9.90;99.90;;;;;;5021590;28;20061;-68
2023/10/31 01:23:08;;;;;;;23.77;15.50;;;9.90;99.90;;;;;;5030780;28;20436;-68
2023/10/31 01:25:33;;;;;;;22.48;14.02;;;9.90;99.90;;;;;;5018391;28;20037;-68
2023/10/31 01:27:59;;;;;;;22.90;12.73;;;10.00;99.90;;;;;;5016337;28;20033;-68
2023/10/31 01:30:24;;;;;;;20.25;12.25;;;10.00;99.90;;;;;;5020408;28;20053;-68
2023/10/31 01:32:50;;;;;;;20.13;11.60;;;10.00;99.90;;;;;;5020390;28;20052;-68
2023/10/31 01:35:15;;;;;;;19.20;10.13;;;10.00;99.90;;;;;;5022484;28;20037;-69
2023/10/31 01:37:41;;;;;;;18.58;11.07;;;10.00;99.90;;;;;;4999602;28;20030;-68
2023/10/31 01:40:07;;;;;;;16.48;10.25;;;10.00;99.90;;;;;;5008784;28;20045;-68
2023/10/31 01:42:33;;;;;;;18.92;11.05;;;10.00;99.90;;;;;;5009479;28;20478;-68
2023/10/31 01:44:58;;;;;;;16.38;10.98;;;10.00;99.90;;;;;;5021113;28;20026;-68
2023/10/31 01:47:24;;;;;;;15.15;10.52;;;10.10;99.90;;;;;;5018098;28;20050;-68
2023/10/31 01:49:51;;;;;;;18.77;9.52;;;10.00;99.90;;;;;;5004221;28;20030;-68
2023/10/31 01:52:16;;;;;;;18.58;10.20;;;10.10;99.90;;;;;;5010448;28;20371;-68
2023/10/31 01:54:43;;;;;;;21.17;10.63;;;10.10;99.90;;;;;;5017820;28;20079;-68
2023/10/31 01:57:09;;;;;;;20.60;10.40;;;10.10;99.90;;;;;;5012582;28;20021;-68
2023/10/31 01:59:35;;;;;;;18.45;9.57;;;10.10;99.90;;;;;;5009028;28;20029;-69
2023/10/31 02:02:01;;;;;;;18.98;9.88;;;10.10;99.90;;;;;;5008908;28;20482;-68
2023/10/31 02:04:26;;;;;;;17.73;9.73;;;10.10;99.90;;;;;;5008652;28;20036;-68
2023/10/31 02:06:52;;;;;;;17.48;10.32;;;10.20;99.90;;;;;;5010057;28;20038;-68
2023/10/31 02:09:17;;;;;;;20.40;10.52;;;10.20;99.90;;;;;;5022819;28;20018;-68
2023/10/31 02:11:43;;;;;;;24.63;11.57;;;10.20;99.90;;;;;;5011369;28;20048;-68
2023/10/31 02:14:08;;;;;;;18.42;9.77;;;10.20;99.90;;;;;;5016916;28;20030;-68
2023/10/31 02:16:34;;;;;;;23.13;10.65;;;10.30;99.90;;;;;;5019826;28;20032;-68
2023/10/31 02:19:00;;;;;;;19.30;9.77;;;10.20;99.90;;;;;;5011249;28;20021;-68
2023/10/31 02:21:25;;;;;;;17.70;10.25;;;10.30;99.90;;;;;;5014062;28;20079;-68
2023/10/31 02:24:04;;;;;;;19.83;10.65;;;10.30;99.90;;;;;;5019300;28;20036;-68
2023/10/31 02:26:34;;;;;;;21.60;10.77;;;10.30;99.90;;;;;;5019583;28;20026;-68
2023/10/31 02:29:01;;;;;;;20.73;10.73;;;10.30;99.90;;;;;;5018016;28;20025;-68
2023/10/31 02:31:27;;;;;;;23.48;12.52;;;10.30;99.90;;;;;;5015076;28;20530;-68
2023/10/31 02:33:52;;;;;;;22.52;13.02;;;10.30;99.90;;;;;;5009047;28;20057;-68
2023/10/31 02:36:18;;;;;;;26.38;13.80;;;10.30;99.90;;;;;;5016641;28;20072;-68
2023/10/31 02:38:44;;;;;;;27.60;14.30;;;10.30;99.90;;;;;;5011779;28;20033;-68
2023/10/31 02:41:10;;;;;;;28.25;14.45;;;10.30;99.90;;;;;;5023416;28;20026;-68
2023/10/31 02:43:37;;;;;;;28.35;16.33;;;10.30;99.90;;;;;;5010469;28;20093;-68
2023/10/31 02:46:03;;;;;;;32.80;17.77;;;10.30;99.90;;;;;;5013710;28;20054;-69
2023/10/31 02:48:29;;;;;;;31.75;17.58;;;10.30;99.90;;;;;;5017960;28;20636;-69
2023/10/31 02:50:54;;;;;;;37.05;18.75;;;10.30;99.90;;;;;;5020405;28;20466;-69
2023/10/31 02:53:20;;;;;;;37.42;19.83;;;10.30;99.90;;;;;;5014738;28;20040;-68
2023/10/31 02:55:45;;;;;;;39.75;20.48;;;10.30;99.90;;;;;;5019304;28;20026;-69
2023/10/31 02:58:11;;;;;;;39.47;21.02;;;10.30;99.90;;;;;;5012085;28;20052;-69
2023/10/31 03:00:37;;;;;;;37.92;20.63;;;10.40;99.90;;;;;;5018169;28;20030;-68
2023/10/31 03:03:03;;;;;;;38.15;21.67;;;10.40;99.90;;;;;;5023892;28;20117;-69
2023/10/31 03:05:29;;;;;;;46.47;25.80;;;10.40;99.90;;;;;;5016531;28;20470;-69
2023/10/31 03:07:55;;;;;;;47.40;24.85;;;10.40;99.90;;;;;;5022697;28;20037;-69
2023/10/31 03:10:21;;;;;;;43.83;23.27;;;10.40;99.90;;;;;;5019064;28;20026;-69
2023/10/31 03:12:47;;;;;;;41.13;24.60;;;10.40;99.90;;;;;;5007406;28;20038;-69
2023/10/31 03:15:13;;;;;;;38.58;23.38;;;10.40;99.90;;;;;;5017764;28;20060;-69
2023/10/31 03:17:39;;;;;;;43.85;24.92;;;10.50;99.90;;;;;;5015638;28;20037;-69
2023/10/31 03:20:05;;;;;;;35.30;22.15;;;10.50;99.90;;;;;;5019455;28;20030;-69
2023/10/31 03:22:30;;;;;;;39.42;22.40;;;10.50;99.90;;;;;;5010874;28;20528;-69
2023/10/31 03:24:56;;;;;;;37.90;21.30;;;10.50;99.90;;;;;;5012794;28;20033;-69
2023/10/31 03:27:22;;;;;;;30.13;19.52;;;10.50;99.90;;;;;;5012795;28;20053;-69
2023/10/31 03:29:48;;;;;;;30.85;17.77;;;10.50;99.90;;;;;;5021421;28;20037;-69
2023/10/31 03:32:14;;;;;;;32.78;18.35;;;10.50;99.90;;;;;;5015411;28;20033;-69
2023/10/31 03:34:40;;;;;;;30.55;17.38;;;10.40;99.90;;;;;;5019093;28;20501;-69
2023/10/31 03:37:06;;;;;;;25.77;15.63;;;10.40;99.90;;;;;;5004535;28;20045;-69
2023/10/31 03:39:32;;;;;;;26.52;16.63;;;10.40;99.90;;;;;;5012214;28;20914;-69
2023/10/31 03:41:57;;;;;;;24.85;15.48;;;10.50;99.90;;;;;;5013658;28;20029;-69
2023/10/31 03:44:23;;;;;;;30.05;17.52;;;10.50;99.90;;;;;;5025632;28;20034;-69
2023/10/31 03:46:48;;;;;;;29.00;17.88;;;10.40;99.90;;;;;;5014862;28;20061;-67
2023/10/31 03:49:14;;;;;;;29.52;17.45;;;10.40;99.90;;;;;;5027290;28;20025;-67
2023/10/31 03:51:39;;;;;;;28.70;17.13;;;10.50;99.90;;;;;;5014559;28;20034;-69
2023/10/31 03:54:05;;;;;;;31.10;18.17;;;10.50;99.90;;;;;;5008712;28;20053;-69
2023/10/31 03:56:40;;;;;;;31.77;17.65;;;10.50;99.90;;;;;;5016171;28;20057;-69
2023/10/31 03:59:05;;;;;;;31.10;18.15;;;10.50;99.90;;;;;;5012790;28;20056;-69
2023/10/31 04:01:31;;;;;;;25.58;16.73;;;10.50;99.90;;;;;;5017364;28;20033;-69
2023/10/31 04:03:56;;;;;;;34.80;16.95;;;10.50;99.90;;;;;;5003345;28;20470;-67
2023/10/31 04:06:22;;;;;;;30.90;18.00;;;10.50;99.90;;;;;;5019477;28;20078;-67
2023/10/31 04:08:47;;;;;;;32.40;17.08;;;10.50;99.90;;;;;;5029354;28;20122;-68
2023/10/31 04:11:13;;;;;;;23.98;14.25;;;10.50;99.90;;;;;;5013813;28;20125;-69
2023/10/31 04:13:38;;;;;;;24.50;13.07;;;10.50;99.90;;;;;;5009397;28;20096;-69
2023/10/31 04:16:04;;;;;;;27.15;14.27;;;10.50;99.90;;;;;;5010290;28;20034;-69
2023/10/31 04:18:30;;;;;;;23.73;12.70;;;10.50;99.90;;;;;;5011085;28;20061;-69
2023/10/31 04:20:55;;;;;;;25.45;12.73;;;10.40;99.90;;;;;;5018835;28;20032;-67
2023/10/31 04:23:21;;;;;;;22.75;11.25;;;10.40;99.90;;;;;;5009949;28;20475;-69
2023/10/31 04:25:46;;;;;;;21.45;10.90;;;10.50;99.90;;;;;;5011565;28;20079;-69
2023/10/31 04:28:14;;;;;;;21.83;11.02;;;10.40;99.90;;;;;;5013312;28;20087;-69
2023/10/31 04:30:40;;;;;;;20.00;10.98;;;10.40;99.90;;;;;;5018781;28;20031;-69
2023/10/31 04:33:05;;;;;;;19.15;8.82;;;10.40;99.90;;;;;;5009589;28;20052;-67
2023/10/31 04:35:31;;;;;;;22.88;9.02;;;10.40;99.90;;;;;;5012961;28;20029;-69
2023/10/31 04:37:56;;;;;;;18.63;8.45;;;10.40;99.90;;;;;;5012373;28;20030;-69
2023/10/31 04:40:22;;;;;;;16.13;8.00;;;10.30;99.90;;;;;;5023274;28;20152;-69
2023/10/31 04:42:48;;;;;;;16.08;6.82;;;10.30;99.90;;;;;;5016335;28;20175;-69
2023/10/31 04:45:13;;;;;;;11.35;5.82;;;10.30;99.90;;;;;;5022136;28;20034;-69
2023/10/31 04:47:39;;;;;;;10.20;5.10;;;10.30;99.90;;;;;;5006111;28;20101;-69
2023/10/31 04:50:05;;;;;;;11.77;4.68;;;10.20;99.90;;;;;;5008459;28;20025;-69
2023/10/31 04:52:31;;;;;;;11.93;4.40;;;10.30;99.90;;;;;;5010134;28;20490;-69
2023/10/31 04:54:56;;;;;;;11.82;3.65;;;10.20;99.90;;;;;;5015579;28;20473;-69
2023/10/31 04:57:22;;;;;;;8.55;2.40;;;10.20;99.90;;;;;;5016418;28;20041;-69
2023/10/31 04:59:47;;;;;;;8.52;2.80;;;10.10;99.90;;;;;;5011637;28;20446;-69
2023/10/31 05:02:13;;;;;;;10.13;2.90;;;10.10;99.90;;;;;;5010105;28;20112;-69
2023/10/31 05:04:42;;;;;;;6.60;1.85;;;10.10;99.90;;;;;;5003429;28;20105;-69
2023/10/31 05:07:08;;;;;;;5.45;2.35;;;10.10;99.90;;;;;;5013992;28;20540;-69
2023/10/31 05:09:33;;;;;;;6.57;1.90;;;10.10;99.90;;;;;;5023859;28;20112;-69
2023/10/31 05:12:00;;;;;;;5.82;2.13;;;10.10;99.90;;;;;;5011363;28;20464;-69
2023/10/31 05:14:25;;;;;;;7.28;2.30;;;10.10;99.90;;;;;;5012023;28;20425;-68
2023/10/31 05:16:51;;;;;;;7.82;1.58;;;10.10;99.90;;;;;;5011366;28;20037;-69
2023/10/31 05:19:16;;;;;;;3.05;1.40;;;10.20;99.90;;;;;;5003367;28;20026;-69
2023/10/31 05:21:42;;;;;;;4.88;0.63;;;10.10;99.90;;;;;;5004498;28;20026;-69
2023/10/31 05:24:08;;;;;;;1.63;0.50;;;10.20;99.90;;;;;;5005317;28;20022;-67
2023/10/31 05:26:34;;;;;;;4.88;0.50;;;10.10;99.90;;;;;;5015114;28;20049;-68
2023/10/31 05:28:59;;;;;;;3.00;0.40;;;10.10;99.90;;;;;;5011389;28;20129;-68
2023/10/31 05:31:26;;;;;;;3.10;0.40;;;10.10;99.90;;;;;;5011488;28;20494;-68
2023/10/31 05:33:54;;;;;;;3.58;0.40;;;10.10;99.90;;;;;;5011170;28;20026;-68
2023/10/31 05:36:24;;;;;;;4.78;0.80;;;10.10;99.90;;;;;;5026761;28;20049;-68
2023/10/31 05:38:50;;;;;;;2.90;0.80;;;10.10;99.90;;;;;;5008336;28;20511;-67
2023/10/31 05:41:16;;;;;;;11.15;1.67;;;10.10;99.90;;;;;;5010159;28;20057;-68
2023/10/31 05:43:41;;;;;;;8.25;2.45;;;10.10;99.90;;;;;;5009539;28;20034;-69
2023/10/31 05:46:10;;;;;;;8.82;2.92;;;10.10;99.90;;;;;;5005772;28;20132;-68
2023/10/31 05:48:40;;;;;;;10.75;3.28;;;10.10;99.90;;;;;;5008583;28;20540;-68
2023/10/31 05:51:12;;;;;;;13.95;6.47;;;10.20;99.90;;;;;;5008105;28;20104;-68
2023/10/31 05:53:39;;;;;;;17.13;8.18;;;10.10;99.90;;;;;;5010966;28;20513;-68
2023/10/31 05:56:07;;;;;;;26.35;11.10;;;10.10;99.90;;;;;;5010091;28;20080;-68
2023/10/31 05:58:32;;;;;;;20.13;11.63;;;10.10;99.90;;;;;;5006340;28;20069;-68
2023/10/31 06:00:58;;;;;;;27.55;14.43;;;10.00;99.90;;;;;;5011265;28;20054;-68
2023/10/31 06:03:23;;;;;;;29.02;16.77;;;10.10;99.90;;;;;;5009741;28;20457;-68
2023/10/31 06:05:49;;;;;;;35.45;17.65;;;10.10;99.90;;;;;;5032906;28;20041;-68
2023/10/31 06:08:15;;;;;;;29.08;15.90;;;10.10;99.90;;;;;;5007833;28;20430;-69
2023/10/31 06:10:40;;;;;;;31.35;17.42;;;10.10;99.90;;;;;;5013183;28;20036;-68
2023/10/31 06:13:06;;;;;;;29.23;16.35;;;10.10;99.90;;;;;;5020715;28;20129;-69
2023/10/31 06:15:31;;;;;;;31.88;15.77;;;10.10;99.90;;;;;;5008579;28;20065;-68
2023/10/31 06:17:57;;;;;;;29.10;15.68;;;10.10;99.90;;;;;;5012552;28;20025;-68
2023/10/31 06:20:23;;;;;;;28.55;15.23;;;10.10;99.90;;;;;;5020799;28;20034;-68
2023/10/31 06:22:49;;;;;;;25.13;13.80;;;10.10;99.90;;;;;;5029413;28;20064;-68
2023/10/31 06:25:14;;;;;;;25.73;14.02;;;10.10;99.90;;;;;;5012994;28;20471;-68
2023/10/31 06:27:40;;;;;;;25.88;14.90;;;10.10;99.90;;;;;;5025539;28;20033;-68
2023/10/31 06:30:06;;;;;;;27.02;14.60;;;10.10;99.90;;;;;;5015689;28;20036;-68
2023/10/31 06:32:32;;;;;;;34.08;16.42;;;10.10;99.90;;;;;;4994092;28;20180;-68
2023/10/31 06:34:57;;;;;;;29.65;16.38;;;10.10;99.90;;;;;;5016085;28;20105;-67
2023/10/31 06:37:23;;;;;;;27.23;15.52;;;10.20;99.90;;;;;;5005550;28;20030;-68
2023/10/31 06:39:48;;;;;;;28.17;16.10;;;10.20;99.90;;;;;;5010556;28;20026;-68
2023/10/31 06:42:14;;;;;;;31.95;17.13;;;10.20;99.90;;;;;;5014174;28;20433;-68
2023/10/31 06:44:39;;;;;;;33.28;18.15;;;10.20;99.90;;;;;;5013361;28;20351;-68
2023/10/31 06:47:05;;;;;;;33.80;18.33;;;10.20;99.90;;;;;;5024358;28;20045;-68
2023/10/31 06:49:30;;;;;;;34.53;19.73;;;10.30;99.90;;;;;;5016950;28;20029;-68
2023/10/31 06:51:56;;;;;;;35.60;20.02;;;10.30;99.90;;;;;;5026005;28;20473;-68
2023/10/31 06:54:21;;;;;;;40.72;21.55;;;10.20;99.90;;;;;;5022633;28;20026;-68
2023/10/31 06:56:47;;;;;;;36.00;21.63;;;10.20;99.90;;;;;;5024162;28;20033;-68
2023/10/31 06:59:13;;;;;;;38.25;23.67;;;10.30;99.90;;;;;;5014127;28;20073;-68
2023/10/31 07:01:38;;;;;;;40.88;23.08;;;10.30;99.90;;;;;;5016921;28;20034;-68
2023/10/31 07:04:04;;;;;;;38.20;22.45;;;10.30;99.90;;;;;;5006658;28;20048;-68
2023/10/31 07:06:30;;;;;;;39.28;22.45;;;10.30;99.90;;;;;;5009161;28;20029;-68
2023/10/31 07:08:57;;;;;;;42.78;23.70;;;10.30;99.90;;;;;;5005026;28;20029;-68
2023/10/31 07:11:22;;;;;;;41.10;23.77;;;10.30;99.90;;;;;;5006587;28;20041;-68
2023/10/31 07:13:48;;;;;;;43.83;24.25;;;10.30;99.90;;;;;;5014882;28;20030;-68
2023/10/31 07:16:14;;;;;;;42.92;23.50;;;10.30;99.90;;;;;;5011441;28;20022;-68
2023/10/31 07:18:39;;;;;;;41.53;23.67;;;10.20;99.90;;;;;;5015253;28;20034;-68
2023/10/31 07:21:05;;;;;;;41.22;23.50;;;10.20;99.90;;;;;;5014472;28;20030;-68
2023/10/31 07:23:31;;;;;;;38.20;22.13;;;10.20;99.90;;;;;;5017111;28;20030;-68
2023/10/31 07:25:56;;;;;;;36.30;20.50;;;10.20;99.90;;;;;;5025260;28;20397;-68
2023/10/31 07:28:22;;;;;;;33.17;19.23;;;10.20;99.90;;;;;;5028099;28;20117;-68
2023/10/31 07:30:48;;;;;;;33.63;20.02;;;10.20;99.90;;;;;;5021333;28;20042;-68
2023/10/31 07:33:13;;;;;;;35.67;20.88;;;10.30;99.90;;;;;;5019325;28;20045;-68
2023/10/31 07:35:39;;;;;;;34.42;21.27;;;10.30;99.90;;;;;;5022478;28;20497;-67
2023/10/31 07:38:05;;;;;;;38.45;22.60;;;10.30;99.90;;;;;;5019599;28;20036;-68
2023/10/31 07:40:30;;;;;;;33.75;20.35;;;10.40;99.90;;;;;;5018563;28;20030;-68
2023/10/31 07:42:56;;;;;;;32.40;21.10;;;10.40;99.90;;;;;;5012966;28;20048;-68
2023/10/31 07:45:21;;;;;;;33.15;19.10;;;10.40;99.90;;;;;;5007677;28;20033;-68
2023/10/31 07:47:47;;;;;;;35.47;21.70;;;10.40;99.90;;;;;;5000521;28;20067;-68
2023/10/31 07:50:13;;;;;;;31.80;20.27;;;10.40;99.90;;;;;;4999812;28;20022;-68
2023/10/31 07:52:38;;;;;;;29.50;19.77;;;10.40;99.90;;;;;;5008051;28;20042;-68
2023/10/31 07:55:04;;;;;;;31.60;18.63;;;10.40;99.90;;;;;;5001377;28;20125;-68
2023/10/31 07:57:30;;;;;;;27.50;17.15;;;10.40;99.90;;;;;;5016972;28;20038;-68
2023/10/31 07:59:55;;;;;;;29.23;17.75;;;10.40;99.90;;;;;;5011700;28;20062;-68
2023/10/31 08:02:21;;;;;;;23.80;15.90;;;10.50;99.90;;;;;;5012814;28;20469;-68
2023/10/31 08:04:46;;;;;;;25.05;15.90;;;10.60;99.90;;;;;;5009776;28;20117;-68
2023/10/31 08:07:12;;;;;;;22.08;15.00;;;10.70;99.90;;;;;;5015517;28;20486;-69
2023/10/31 08:09:37;;;;;;;21.83;14.05;;;10.70;99.90;;;;;;5012669;28;20516;-69
2023/10/31 08:12:03;;;;;;;23.63;14.15;;;10.80;99.90;;;;;;5013791;28;20042;-68
2023/10/31 08:14:29;;;;;;;30.85;13.85;;;10.80;99.90;;;;;;5014288;28;20554;-68
2023/10/31 08:16:54;;;;;;;20.55;12.27;;;10.80;99.90;;;;;;5016146;28;20026;-68
2023/10/31 08:19:20;;;;;;;21.63;12.68;;;10.90;99.90;;;;;;5014161;28;20035;-68
2023/10/31 08:21:45;;;;;;;19.55;11.88;;;10.90;99.90;;;;;;5009370;28;20104;-68
2023/10/31 08:24:13;;;;;;;17.95;12.02;;;10.90;99.90;;;;;;5012458;28;20475;-68
2023/10/31 08:26:38;;;;;;;21.13;12.73;;;10.90;99.90;;;;;;5022088;28;20033;-68
2023/10/31 08:29:04;;;;;;;19.70;12.85;;;11.00;99.90;;;;;;5026710;28;20024;-69
2023/10/31 08:31:30;;;;;;;19.73;12.75;;;11.10;99.90;;;;;;5015247;28;20548;-68
2023/10/31 08:33:55;;;;;;;18.13;12.02;;;11.10;99.90;;;;;;5009936;28;20413;-69
2023/10/31 08:36:21;;;;;;;17.83;11.93;;;11.10;99.90;;;;;;5021644;28;20468;-68
2023/10/31 08:38:46;;;;;;;19.30;13.35;;;11.10;99.90;;;;;;5018463;28;20516;-68
2023/10/31 08:41:12;;;;;;;22.30;13.45;;;11.10;99.90;;;;;;5014858;28;20080;-68
2023/10/31 08:43:37;;;;;;;19.85;13.65;;;11.20;99.90;;;;;;5012935;28;20103;-68
2023/10/31 08:46:03;;;;;;;18.90;12.57;;;11.30;99.90;;;;;;5014032;28;20384;-68
2023/10/31 08:48:29;;;;;;;20.42;12.75;;;11.30;99.90;;;;;;5009364;28;20025;-68
2023/10/31 08:50:54;;;;;;;18.52;12.40;;;11.40;99.90;;;;;;5021905;28;20037;-68
2023/10/31 08:53:20;;;;;;;21.65;13.73;;;11.50;99.90;;;;;;5012264;28;20037;-68
2023/10/31 08:55:45;;;;;;;20.38;13.27;;;11.60;99.90;;;;;;5005399;28;20026;-68
2023/10/31 08:58:12;;;;;;;19.60;13.52;;;11.70;99.90;;;;;;5005457;28;20061;-69
2023/10/31 09:00:41;;;;;;;19.70;14.07;;;11.80;99.90;;;;;;5012350;28;20030;-69
2023/10/31 09:03:07;;;;;;;17.67;13.10;;;12.00;99.90;;;;;;5016564;28;20026;-69
2023/10/31 09:05:33;;;;;;;19.40;14.63;;;12.00;99.90;;;;;;5007390;28;20088;-68
2023/10/31 09:07:59;;;;;;;23.50;16.60;;;12.10;99.90;;;;;;5010761;28;20037;-69
2023/10/31 09:10:24;;;;;;;19.77;15.75;;;12.10;99.90;;;;;;5014723;28;20446;-69
2023/10/31 09:12:50;;;;;;;21.25;16.00;;;12.20;99.90;;;;;;5011756;28;20402;-68
2023/10/31 09:15:15;;;;;;;21.33;16.48;;;12.20;99.90;;;;;;4999433;28;20026;-69
2023/10/31 09:17:41;;;;;;;24.92;17.23;;;12.10;99.90;;;;;;5010894;28;20088;-69
2023/10/31 09:20:08;;;;;;;22.45;16.10;;;12.10;99.90;;;;;;5008608;28;20189;-69
2023/10/31 09:22:33;;;;;;;23.05;15.82;;;12.10;99.90;;;;;;5023517;28;20026;-68
2023/10/31 09:24:59;;;;;;;23.40;17.30;;;12.20;99.90;;;;;;5022487;28;20552;-68
2023/10/31 09:27:24;;;;;;;19.90;16.00;;;12.20;99.90;;;;;;5009298;28;20045;-68
2023/10/31 09:29:51;;;;;;;22.10;16.52;;;12.20;99.90;;;;;;5004279;28;20022;-69
2023/10/31 09:32:18;;;;;;;21.08;15.25;;;12.20;99.90;;;;;;5012567;28;20140;-69
2023/10/31 09:34:43;;;;;;;23.92;16.80;;;12.30;99.90;;;;;;5009541;28;20050;-69
2023/10/31 09:37:09;;;;;;;21.80;15.93;;;12.20;99.90;;;;;;5020965;28;20061;-69
2023/10/31 09:39:34;;;;;;;19.60;14.88;;;12.20;99.90;;;;;;5014213;28;20112;-68
2023/10/31 09:42:00;;;;;;;19.67;14.90;;;12.20;99.90;;;;;;5010756;28;20458;-69
2023/10/31 09:44:25;;;;;;;24.52;15.68;;;12.20;99.90;;;;;;5012385;28;20498;-68
2023/10/31 09:46:54;;;;;;;23.60;15.50;;;12.20;99.90;;;;;;5010088;28;20341;-68
2023/10/31 09:49:20;;;;;;;20.50;15.95;;;12.20;99.90;;;;;;5016478;28;20034;-68
2023/10/31 09:51:47;;;;;;;18.52;15.13;;;12.20;99.90;;;;;;5014073;28;20038;-68
2023/10/31 09:54:15;;;;;;;20.08;15.27;;;12.20;99.90;;;;;;5024549;28;20026;-68
2023/10/31 09:56:41;;;;;;;23.48;15.70;;;12.20;99.90;;;;;;5012586;28;20041;-69
2023/10/31 09:59:07;;;;;;;20.63;16.25;;;12.20;99.90;;;;;;5014751;28;20382;-69
2023/10/31 10:01:33;;;;;;;20.65;16.25;;;12.30;99.90;;;;;;5010132;28;20022;-69
2023/10/31 10:03:59;;;;;;;21.38;17.27;;;12.30;99.90;;;;;;5012737;28;20385;-69
2023/10/31 10:06:24;;;;;;;21.48;16.08;;;12.40;99.90;;;;;;5006838;28;20025;-69
2023/10/31 10:08:50;;;;;;;22.38;17.83;;;12.50;99.90;;;;;;5009957;28;20034;-69
2023/10/31 10:11:16;;;;;;;22.02;17.73;;;12.50;99.90;;;;;;5008655;28;20022;-68
2023/10/31 10:13:42;;;;;;;26.10;19.02;;;12.50;99.90;;;;;;5020124;28;20398;-69
2023/10/31 10:16:09;;;;;;;20.58;17.90;;;12.70;99.90;;;;;;5014052;28;20030;-68
2023/10/31 10:18:37;;;;;;;24.33;18.77;;;12.70;99.90;;;;;;5006002;28;20433;-69
2023/10/31 10:21:05;;;;;;;25.98;21.15;;;12.70;99.90;;;;;;5009976;28;20033;-69
2023/10/31 10:23:32;;;;;;;23.13;19.30;;;12.70;99.90;;;;;;5011476;28;20045;-69
2023/10/31 10:26:00;;;;;;;27.13;19.15;;;12.70;99.90;;;;;;5010187;28;20053;-67
2023/10/31 10:28:26;;;;;;;25.02;19.23;;;12.70;99.90;;;;;;5018780;28;20127;-68
2023/10/31 10:30:53;;;;;;;30.33;22.15;;;12.70;99.90;;;;;;5016518;28;20049;-68
2023/10/31 10:33:20;;;;;;;33.33;23.70;;;12.70;99.90;;;;;;5019105;28;20111;-68
2023/10/31 10:35:46;;;;;;;33.88;23.88;;;12.70;99.90;;;;;;5005034;28;20030;-69
2023/10/31 10:38:15;;;;;;;36.35;25.00;;;12.70;99.90;;;;;;5002937;28;20499;-68
2023/10/31 10:40:43;;;;;;;34.65;24.83;;;12.70;99.90;;;;;;5009161;28;20026;-68
2023/10/31 10:43:12;;;;;;;35.55;24.42;;;12.60;99.90;;;;;;5009757;28;20026;-68
2023/10/31 10:45:42;;;;;;;33.72;24.35;;;12.60;99.90;;;;;;5010313;28;20041;-68
2023/10/31 10:48:14;;;;;;;35.85;23.73;;;12.70;99.90;;;;;;5006319;28;20368;-68
2023/10/31 10:50:43;;;;;;;38.13;25.20;;;12.80;99.90;;;;;;5017017;28;20084;-68
2023/10/31 10:53:28;;;;;;;37.65;24.33;;;12.90;99.90;;;;;;5013236;28;20046;-69
2023/10/31 10:56:13;;;;;;;42.17;25.45;;;13.10;99.90;;;;;;5014653;28;20402;-68
2023/10/31 10:58:53;;;;;;;36.70;24.55;;;13.10;99.90;;;;;;5010390;28;20065;-68
2023/10/31 11:01:19;;;;;;;42.88;25.67;;;13.20;99.90;;;;;;5017881;28;20148;-68
2023/10/31 11:03:46;;;;;;;39.38;25.55;;;13.20;99.90;;;;;;5007730;28;20431;-68
2023/10/31 11:06:13;;;;;;;39.47;23.75;;;13.10;99.90;;;;;;5009043;28;20474;-68
2023/10/31 11:08:40;;;;;;;41.22;26.30;;;13.00;99.90;;;;;;5022432;28;20132;-68
2023/10/31 11:11:09;;;;;;;42.50;24.20;;;13.00;99.90;;;;;;5017619;28;20044;-70
2023/10/31 11:13:35;;;;;;;39.55;24.08;;;13.00;99.90;;;;;;5018111;28;20045;-68
2023/10/31 11:16:09;;;;;;;37.00;22.67;;;13.00;99.90;;;;;;5022541;28;20126;-68
2023/10/31 11:18:35;;;;;;;37.03;22.67;;;13.00;99.90;;;;;;5013486;28;20507;-68
2023/10/31 11:21:00;;;;;;;37.33;23.05;;;13.00;99.90;;;;;;5013611;28;20113;-68
2023/10/31 11:23:27;;;;;;;29.02;20.08;;;13.00;99.90;;;;;;5014641;28;20096;-68
2023/10/31 11:25:54;;;;;;;34.95;20.77;;;13.00;99.90;;;;;;5022258;28;20053;-68
2023/10/31 11:28:19;;;;;;;35.33;21.73;;;13.00;99.90;;;;;;5004923;28;20014;-69
2023/10/31 11:30:56;;;;;;;38.95;20.98;;;13.00;99.90;;;;;;5004128;28;20033;-69
2023/10/31 11:33:24;;;;;;;30.48;20.25;;;13.20;99.90;;;;;;5008818;28;20034;-69
2023/10/31 11:35:51;;;;;;;33.22;19.70;;;13.20;99.90;;;;;;5016459;28;20025;-68
2023/10/31 11:38:27;;;;;;;33.55;18.98;;;13.20;99.90;;;;;;5022869;28;20496;-69
2023/10/31 11:40:59;;;;;;;35.97;20.50;;;13.30;99.90;;;;;;5012966;28;20088;-69
2023/10/31 11:43:25;;;;;;;33.70;18.73;;;13.40;99.90;;;;;;5010611;28;20029;-69
2023/10/31 11:45:51;;;;;;;33.30;17.85;;;13.30;99.90;;;;;;5015526;28;20512;-69
2023/10/31 11:48:17;;;;;;;31.63;16.67;;;13.30;99.90;;;;;;5021898;28;20025;-69
2023/10/31 11:50:43;;;;;;;32.05;17.95;;;13.20;99.90;;;;;;5010403;28;20038;-68
2023/10/31 11:53:13;;;;;;;31.80;18.65;;;13.10;99.90;;;;;;5007837;28;20034;-69
2023/10/31 11:55:44;;;;;;;28.15;17.48;;;13.10;99.90;;;;;;5014262;28;20083;-69
2023/10/31 11:58:13;;;;;;;32.67;17.50;;;13.10;99.90;;;;;;5020234;28;20441;-69
2023/10/31 12:00:39;;;;;;;32.42;17.10;;;13.00;99.90;;;;;;5009845;28;20026;-69
2023/10/31 12:03:04;;;;;;;32.15;18.40;;;12.90;99.90;;;;;;5011086;28;20026;-69
2023/10/31 12:05:30;;;;;;;33.50;18.10;;;12.90;99.90;;;;;;5009814;28;20091;-69
2023/10/31 12:07:56;;;;;;;29.33;17.77;;;12.90;99.90;;;;;;5024954;28;20030;-69
2023/10/31 12:10:29;;;;;;;31.48;18.20;;;12.90;99.90;;;;;;5010308;28;20017;-69
2023/10/31 12:12:56;;;;;;;30.33;18.08;;;13.00;99.90;;;;;;5008404;28;20095;-69
2023/10/31 12:15:21;;;;;;;29.92;17.42;;;13.00;99.90;;;;;;5011089;28;20026;-69
2023/10/31 12:17:48;;;;;;;32.50;18.73;;;13.10;99.90;;;;;;5004859;28;20025;-69
2023/10/31 12:20:14;;;;;;;29.92;17.83;;;13.10;99.90;;;;;;5004405;28;20486;-69
2023/10/31 12:22:40;;;;;;;34.50;19.50;;;13.30;99.90;;;;;;5001162;28;20033;-69
2023/10/31 12:25:09;;;;;;;31.85;19.20;;;13.50;99.90;;;;;;5012982;28;20026;-68